sensor_id;sensor_type;location;lat;lon;timestamp;pressure;altitude;pressure_sealevel;temperature;humidity
80128;BME280;69440;52.118;5.408;2023-10-13T00:00:28;101260.75;;;16.31;100.00
80128;BME280;69440;52.118;5.408;2023-10-13T00:02:58;101263.56;;;16.30;100.00
80128;BME280;69440;52.118;5.408;2023-10-13T00:05:29;101270.72;;;16.31;100.00
80128;BME280;69440;52.118;5.408;2023-10-13T00:08:00;101262.59;;;16.31;100.00
80128;BME280;69440;52.118;5.408;2023-10-13T00:10:31;101262.59;;;16.31;100.00
80128;BME280;69440;52.118;5.408;2023-10-13T00:12:58;101250.00;;;16.30;100.00
80128;BME280;69440;52.118;5.408;2023-10-13T00:15:44;101250.00;;;16.30;100.00
80128;BME280;69440;52.118;5.408;2023-10-13T00:18:26;101248.28;;;16.29;100.00
80128;BME280;69440;52.118;5.408;2023-10-13T00:20:53;101249.13;;;16.29;100.00
80128;BME280;69440;52.118;5.408;2023-10-13T00:23:23;101250.97;;;16.29;100.00
80128;BME280;69440;52.118;5.408;2023-10-13T00:25:53;101245.56;;;16.29;100.00
80128;BME280;69440;52.118;5.408;2023-10-13T00:28:26;101244.69;;;16.28;100.00
80128;BME280;69440;52.118;5.408;2023-10-13T00:31:02;101239.16;;;16.30;100.00
80128;BME280;69440;52.118;5.408;2023-10-13T00:33:40;101245.56;;;16.29;100.00
80128;BME280;69440;52.118;5.408;2023-10-13T00:36:17;101231.13;;;16.28;100.00
80128;BME280;69440;52.118;5.408;2023-10-13T00:38:45;101235.56;;;16.29;100.00
80128;BME280;69440;52.118;5.408;2023-10-13T00:41:15;101228.31;;;16.30;100.00
80128;BME280;69440;52.118;5.408;2023-10-13T00:43:47;101228.31;;;16.30;100.00
80128;BME280;69440;52.118;5.408;2023-10-13T00:46:34;101227.56;;;16.28;100.00
80128;BME280;69440;52.118;5.408;2023-10-13T00:49:03;101220.41;;;16.27;100.00
80128;BME280;69440;52.118;5.408;2023-10-13T00:51:35;101214.00;;;16.28;100.00
80128;BME280;69440;52.118;5.408;2023-10-13T00:54:08;101218.44;;;16.29;100.00
80128;BME280;69440;52.118;5.408;2023-10-13T00:56:40;101213.13;;;16.27;100.00
80128;BME280;69440;52.118;5.408;2023-10-13T00:59:14;101216.59;;;16.29;100.00
80128;BME280;69440;52.118;5.408;2023-10-13T01:01:41;101209.31;;;16.30;100.00
80128;BME280;69440;52.118;5.408;2023-10-13T01:04:11;101195.00;;;16.28;100.00
80128;BME280;69440;52.118;5.408;2023-10-13T01:06:41;101196.72;;;16.29;100.00
80128;BME280;69440;52.118;5.408;2023-10-13T01:09:09;101184.91;;;16.30;100.00
80128;BME280;69440;52.118;5.408;2023-10-13T01:11:47;101189.47;;;16.29;100.00
80128;BME280;69440;52.118;5.408;2023-10-13T01:14:19;101183.16;;;16.29;100.00
80128;BME280;69440;52.118;5.408;2023-10-13T01:16:49;101182.19;;;16.30;100.00
80128;BME280;69440;52.118;5.408;2023-10-13T01:19:19;101179.47;;;16.30;100.00
80128;BME280;69440;52.118;5.408;2023-10-13T01:21:51;101176.75;;;16.30;100.00
80128;BME280;69440;52.118;5.408;2023-10-13T01:24:28;101174.91;;;16.30;100.00
80128;BME280;69440;52.118;5.408;2023-10-13T01:26:57;101173.06;;;16.31;100.00
80128;BME280;69440;52.118;5.408;2023-10-13T01:29:30;101161.34;;;16.30;100.00
80128;BME280;69440;52.118;5.408;2023-10-13T01:31:56;101168.63;;;16.30;100.00
80128;BME280;69440;52.118;5.408;2023-10-13T01:34:23;101164.91;;;16.31;100.00
80128;BME280;69440;52.118;5.408;2023-10-13T01:36:50;101155.91;;;16.30;100.00
80128;BME280;69440;52.118;5.408;2023-10-13T01:39:20;101156.91;;;16.29;100.00
80128;BME280;69440;52.118;5.408;2023-10-13T01:41:48;101149.63;;;16.30;100.00
80128;BME280;69440;52.118;5.408;2023-10-13T01:44:25;101155.91;;;16.30;100.00
80128;BME280;69440;52.118;5.408;2023-10-13T01:47:01;101147.91;;;16.29;100.00
80128;BME280;69440;52.118;5.408;2023-10-13T01:49:35;101138.91;;;16.28;100.00
80128;BME280;69440;52.118;5.408;2023-10-13T01:52:16;101146.06;;;16.29;100.00
80128;BME280;69440;52.118;5.408;2023-10-13T01:54:44;101143.47;;;16.28;100.00
80128;BME280;69440;52.118;5.408;2023-10-13T01:57:11;101138.03;;;16.28;100.00
80128;BME280;69440;52.118;5.408;2023-10-13T01:59:44;101133.59;;;16.27;100.00
80128;BME280;69440;52.118;5.408;2023-10-13T02:02:11;101137.19;;;16.27;100.00
80128;BME280;69440;52.118;5.408;2023-10-13T02:04:41;101128.16;;;16.27;100.00
80128;BME280;69440;52.118;5.408;2023-10-13T02:07:26;101121.03;;;16.26;100.00
80128;BME280;69440;52.118;5.408;2023-10-13T02:09:56;101125.59;;;16.25;100.00
80128;BME280;69440;52.118;5.408;2023-10-13T02:12:24;101122.88;;;16.25;100.00
80128;BME280;69440;52.118;5.408;2023-10-13T02:15:12;101117.44;;;16.25;100.00
80128;BME280;69440;52.118;5.408;2023-10-13T02:17:49;101120.03;;;16.27;100.00
80128;BME280;69440;52.118;5.408;2023-10-13T02:20:20;101115.59;;;16.26;100.00
80128;BME280;69440;52.118;5.408;2023-10-13T02:22:50;101114.72;;;16.25;100.00
80128;BME280;69440;52.118;5.408;2023-10-13T02:25:17;101105.72;;;16.25;100.00
80128;BME280;69440;52.118;5.408;2023-10-13T02:28:02;101108.56;;;16.23;100.00
80128;BME280;69440;52.118;5.408;2023-10-13T02:30:28;101102.28;;;16.23;100.00
80128;BME280;69440;52.118;5.408;2023-10-13T02:32:56;101092.38;;;16.22;100.00
80128;BME280;69440;52.118;5.408;2023-10-13T02:35:24;101091.44;;;16.23;100.00
80128;BME280;69440;52.118;5.408;2023-10-13T02:37:57;101091.50;;;16.21;100.00
80128;BME280;69440;52.118;5.408;2023-10-13T02:40:25;101087.81;;;16.22;100.00
80128;BME280;69440;52.118;5.408;2023-10-13T02:42:52;101088.81;;;16.21;100.00
80128;BME280;69440;52.118;5.408;2023-10-13T02:45:19;101079.81;;;16.21;100.00
80128;BME280;69440;52.118;5.408;2023-10-13T02:47:52;101069.81;;;16.21;100.00
80128;BME280;69440;52.118;5.408;2023-10-13T02:50:39;101060.94;;;16.19;100.00
80128;BME280;69440;52.118;5.408;2023-10-13T02:53:09;101055.50;;;16.19;100.00
80128;BME280;69440;52.118;5.408;2023-10-13T02:55:52;101052.94;;;16.18;100.00
80128;BME280;69440;52.118;5.408;2023-10-13T02:58:19;101047.63;;;16.16;100.00
80128;BME280;69440;52.118;5.408;2023-10-13T03:00:47;101048.50;;;16.17;100.00
80128;BME280;69440;52.118;5.408;2023-10-13T03:03:14;101039.50;;;16.16;100.00
80128;BME280;69440;52.118;5.408;2023-10-13T03:05:45;101034.19;;;16.14;100.00
80128;BME280;69440;52.118;5.408;2023-10-13T03:08:12;101023.34;;;16.14;100.00
80128;BME280;69440;52.118;5.408;2023-10-13T03:10:44;101014.47;;;16.12;100.00
80128;BME280;69440;52.118;5.408;2023-10-13T03:13:14;100999.91;;;16.13;100.00
80128;BME280;69440;52.118;5.408;2023-10-13T03:15:40;100987.47;;;16.11;100.00
80128;BME280;69440;52.118;5.408;2023-10-13T03:18:07;100983.91;;;16.10;100.00
80128;BME280;69440;52.118;5.408;2023-10-13T03:20:38;100983.91;;;16.10;100.00
80128;BME280;69440;52.118;5.408;2023-10-13T03:23:08;100984.03;;;16.09;100.00
80128;BME280;69440;52.118;5.408;2023-10-13T03:25:36;100986.59;;;16.10;100.00
80128;BME280;69440;52.118;5.408;2023-10-13T03:28:09;100992.03;;;16.10;100.00
80128;BME280;69440;52.118;5.408;2023-10-13T03:30:40;100989.44;;;16.09;100.00
80128;BME280;69440;52.118;5.408;2023-10-13T03:33:10;100989.44;;;16.09;100.00
80128;BME280;69440;52.118;5.408;2023-10-13T03:35:39;100977.59;;;16.10;100.00
80128;BME280;69440;52.118;5.408;2023-10-13T03:38:09;100964.19;;;16.08;100.00
80128;BME280;69440;52.118;5.408;2023-10-13T03:40:49;100975.03;;;16.08;100.00
80128;BME280;69440;52.118;5.408;2023-10-13T03:43:22;100971.44;;;16.08;100.00
80128;BME280;69440;52.118;5.408;2023-10-13T03:45:50;100950.63;;;16.08;100.00
80128;BME280;69440;52.118;5.408;2023-10-13T03:48:27;100942.84;;;16.04;100.00
80128;BME280;69440;52.118;5.408;2023-10-13T03:51:00;100934.72;;;16.04;100.00
80128;BME280;69440;52.118;5.408;2023-10-13T03:53:31;100927.44;;;16.04;100.00
80128;BME280;69440;52.118;5.408;2023-10-13T03:56:01;100920.19;;;16.05;100.00
80128;BME280;69440;52.118;5.408;2023-10-13T03:58:58;100910.31;;;16.04;100.00
80128;BME280;69440;52.118;5.408;2023-10-13T04:01:30;100902.06;;;16.05;100.00
80128;BME280;69440;52.118;5.408;2023-10-13T04:03:59;100903.78;;;16.06;100.00
80128;BME280;69440;52.118;5.408;2023-10-13T04:06:31;100897.75;;;16.03;100.00
80128;BME280;69440;52.118;5.408;2023-10-13T04:09:21;100892.31;;;16.03;100.00
80128;BME280;69440;52.118;5.408;2023-10-13T04:11:57;100880.63;;;16.02;100.00
80128;BME280;69440;52.118;5.408;2023-10-13T04:14:34;100868.91;;;16.02;100.00
80128;BME280;69440;52.118;5.408;2023-10-13T04:17:20;100864.34;;;16.02;100.00
80128;BME280;69440;52.118;5.408;2023-10-13T04:19:53;100855.34;;;16.02;100.00
80128;BME280;69440;52.118;5.408;2023-10-13T04:22:33;100853.50;;;16.02;100.00
80128;BME280;69440;52.118;5.408;2023-10-13T04:25:16;100839.09;;;16.02;100.00
80128;BME280;69440;52.118;5.408;2023-10-13T04:28:06;100838.22;;;16.01;100.00
80128;BME280;69440;52.118;5.408;2023-10-13T04:30:51;100849.06;;;16.01;100.00
80128;BME280;69440;52.118;5.408;2023-10-13T04:33:28;100848.94;;;16.03;100.00
80128;BME280;69440;52.118;5.408;2023-10-13T04:36:14;100832.69;;;16.03;100.00
80128;BME280;69440;52.118;5.408;2023-10-13T04:38:46;100832.81;;;16.01;100.00
80128;BME280;69440;52.118;5.408;2023-10-13T04:41:33;100819.13;;;16.03;100.00
80128;BME280;69440;52.118;5.408;2023-10-13T04:44:16;100817.28;;;16.03;100.00
80128;BME280;69440;52.118;5.408;2023-10-13T04:47:02;100810.88;;;16.04;100.00
80128;BME280;69440;52.118;5.408;2023-10-13T04:49:31;100799.88;;;16.06;100.00
80128;BME280;69440;52.118;5.408;2023-10-13T04:52:09;100812.47;;;16.07;100.00
80128;BME280;69440;52.118;5.408;2023-10-13T04:54:46;100809.63;;;16.08;100.00
80128;BME280;69440;52.118;5.408;2023-10-13T04:57:24;100804.06;;;16.10;100.00
80128;BME280;69440;52.118;5.408;2023-10-13T05:00:13;100795.81;;;16.11;100.00
80128;BME280;69440;52.118;5.408;2023-10-13T05:02:42;100783.09;;;16.12;100.00
80128;BME280;69440;52.118;5.408;2023-10-13T05:05:27;100785.56;;;16.15;100.00
80128;BME280;69440;52.118;5.408;2023-10-13T05:08:13;100783.31;;;16.20;100.00
80128;BME280;69440;52.118;5.408;2023-10-13T05:11:03;100780.25;;;16.25;100.00
80128;BME280;69440;52.118;5.408;2023-10-13T05:13:48;100773.69;;;16.27;100.00
80128;BME280;69440;52.118;5.408;2023-10-13T05:16:33;100768.88;;;16.31;100.00
80128;BME280;69440;52.118;5.408;2023-10-13T05:19:19;100768.50;;;16.35;100.00
80128;BME280;69440;52.118;5.408;2023-10-13T05:22:03;100769.81;;;16.41;100.00
80128;BME280;69440;52.118;5.408;2023-10-13T05:24:48;100763.00;;;16.46;100.00
80128;BME280;69440;52.118;5.408;2023-10-13T05:27:34;100751.03;;;16.49;100.00
80128;BME280;69440;52.118;5.408;2023-10-13T05:30:19;100770.53;;;16.54;100.00
80128;BME280;69440;52.118;5.408;2023-10-13T05:33:05;100767.53;;;16.57;100.00
80128;BME280;69440;52.118;5.408;2023-10-13T05:35:50;100765.41;;;16.61;100.00
80128;BME280;69440;52.118;5.408;2023-10-13T05:38:35;100752.72;;;16.61;100.00
80128;BME280;69440;52.118;5.408;2023-10-13T05:41:20;100759.84;;;16.62;100.00
80128;BME280;69440;52.118;5.408;2023-10-13T05:44:05;100744.72;;;16.60;100.00
80128;BME280;69440;52.118;5.408;2023-10-13T05:46:50;100754.84;;;16.58;100.00
80128;BME280;69440;52.118;5.408;2023-10-13T05:49:37;100763.09;;;16.56;100.00
80128;BME280;69440;52.118;5.408;2023-10-13T05:52:31;100746.31;;;16.51;100.00
80128;BME280;69440;52.118;5.408;2023-10-13T05:55:33;100743.88;;;16.48;100.00
80128;BME280;69440;52.118;5.408;2023-10-13T05:58:18;100735.16;;;16.44;100.00
80128;BME280;69440;52.118;5.408;2023-10-13T06:01:03;100735.41;;;16.41;100.00
80128;BME280;69440;52.118;5.408;2023-10-13T06:03:48;100731.09;;;16.39;100.00
80128;BME280;69440;52.118;5.408;2023-10-13T06:06:33;100740.38;;;16.36;100.00
80128;BME280;69440;52.118;5.408;2023-10-13T06:09:18;100743.22;;;16.35;100.00
80128;BME280;69440;52.118;5.408;2023-10-13T06:12:03;100737.78;;;16.35;100.00
80128;BME280;69440;52.118;5.408;2023-10-13T06:14:48;100728.78;;;16.34;100.00
80128;BME280;69440;52.118;5.408;2023-10-13T06:17:33;100719.78;;;16.34;100.00
80128;BME280;69440;52.118;5.408;2023-10-13T06:20:18;100709.81;;;16.34;100.00
80128;BME280;69440;52.118;5.408;2023-10-13T06:23:03;100705.97;;;16.37;100.00
80128;BME280;69440;52.118;5.408;2023-10-13T06:25:52;100696.09;;;16.36;100.00
80128;BME280;69440;52.118;5.408;2023-10-13T06:28:38;100695.97;;;16.37;100.00
80128;BME280;69440;52.118;5.408;2023-10-13T06:31:08;100694.97;;;16.38;100.00
80128;BME280;69440;52.118;5.408;2023-10-13T06:33:41;100694.00;;;16.39;100.00
80128;BME280;69440;52.118;5.408;2023-10-13T06:36:11;100689.41;;;16.40;100.00
80128;BME280;69440;52.118;5.408;2023-10-13T06:38:38;100691.28;;;16.39;100.00
80128;BME280;69440;52.118;5.408;2023-10-13T06:41:06;100695.56;;;16.42;100.00
80128;BME280;69440;52.118;5.408;2023-10-13T06:43:37;100693.59;;;16.44;100.00
80128;BME280;69440;52.118;5.408;2023-10-13T06:46:07;100688.88;;;16.46;100.00
80128;BME280;69440;52.118;5.408;2023-10-13T06:48:43;100689.63;;;16.48;100.00
80128;BME280;69440;52.118;5.408;2023-10-13T06:51:10;100682.19;;;16.50;100.00
80128;BME280;69440;52.118;5.408;2023-10-13T06:53:49;100698.25;;;16.53;100.00
80128;BME280;69440;52.118;5.408;2023-10-13T06:56:15;100681.84;;;16.55;100.00
80128;BME280;69440;52.118;5.408;2023-10-13T06:58:49;100683.41;;;16.57;100.00
80128;BME280;69440;52.118;5.408;2023-10-13T07:01:15;100673.16;;;16.61;100.00
80128;BME280;69440;52.118;5.408;2023-10-13T07:03:48;100656.59;;;16.64;100.00
80128;BME280;69440;52.118;5.408;2023-10-13T07:06:22;100660.66;;;16.69;100.00
80128;BME280;69440;52.118;5.408;2023-10-13T07:08:49;100658.41;;;16.74;100.00
80128;BME280;69440;52.118;5.408;2023-10-13T07:11:19;100649.13;;;16.77;100.00
80128;BME280;69440;52.118;5.408;2023-10-13T07:14:00;100658.72;;;16.81;100.00
80128;BME280;69440;52.118;5.408;2023-10-13T07:16:43;100647.63;;;16.84;100.00
80128;BME280;69440;52.118;5.408;2023-10-13T07:19:13;100633.63;;;16.89;100.00
80128;BME280;69440;52.118;5.408;2023-10-13T07:21:45;100624.34;;;16.91;100.00
80128;BME280;69440;52.118;5.408;2023-10-13T07:24:13;100598.91;;;16.92;100.00
80128;BME280;69440;52.118;5.408;2023-10-13T07:26:40;100598.78;;;16.94;100.00
80128;BME280;69440;52.118;5.408;2023-10-13T07:29:12;100600.50;;;16.95;100.00
80128;BME280;69440;52.118;5.408;2023-10-13T07:31:40;100597.50;;;16.98;100.00
80128;BME280;69440;52.118;5.408;2023-10-13T07:34:10;100594.50;;;17.01;100.00
80128;BME280;69440;52.118;5.408;2023-10-13T07:36:53;100597.94;;;17.03;100.00
80128;BME280;69440;52.118;5.408;2023-10-13T07:39:36;100601.38;;;17.05;100.00
80128;BME280;69440;52.118;5.408;2023-10-13T07:42:06;100595.81;;;17.06;100.00
80128;BME280;69440;52.118;5.408;2023-10-13T07:44:38;100614.69;;;17.08;100.00
80128;BME280;69440;52.118;5.408;2023-10-13T07:47:15;100589.22;;;17.09;100.00
80128;BME280;69440;52.118;5.408;2023-10-13T07:49:44;100602.09;;;17.07;100.00
80128;BME280;69440;52.118;5.408;2023-10-13T07:52:11;100612.69;;;17.10;100.00
80128;BME280;69440;52.118;5.408;2023-10-13T07:54:56;100581.94;;;17.10;100.00
80128;BME280;69440;52.118;5.408;2023-10-13T07:57:29;100595.38;;;17.11;100.00
80128;BME280;69440;52.118;5.408;2023-10-13T07:59:57;100598.81;;;17.13;100.00
80128;BME280;69440;52.118;5.408;2023-10-13T08:02:58;100603.16;;;17.16;100.00
80128;BME280;69440;52.118;5.408;2023-10-13T08:05:54;100593.72;;;17.20;100.00
80128;BME280;69440;52.118;5.408;2023-10-13T08:08:48;100597.72;;;17.25;100.00
80128;BME280;69440;52.118;5.408;2023-10-13T08:11:20;100595.31;;;17.32;100.00
80128;BME280;69440;52.118;5.408;2023-10-13T08:14:03;100594.03;;;17.36;100.00
80128;BME280;69440;52.118;5.408;2023-10-13T08:17:02;100590.88;;;17.41;100.00
80128;BME280;69440;52.118;5.408;2023-10-13T08:19:34;100582.44;;;17.44;100.00
80128;BME280;69440;52.118;5.408;2023-10-13T08:22:11;100576.00;;;17.45;100.00
80128;BME280;69440;52.118;5.408;2023-10-13T08:24:48;100598.22;;;17.50;100.00
80128;BME280;69440;52.118;5.408;2023-10-13T08:27:17;100568.03;;;17.53;100.00
80128;BME280;69440;52.118;5.408;2023-10-13T08:30:15;100578.63;;;17.56;100.00
80128;BME280;69440;52.118;5.408;2023-10-13T08:32:57;100572.19;;;17.57;100.00
80128;BME280;69440;52.118;5.408;2023-10-13T08:35:26;100573.75;;;17.59;100.00
80128;BME280;69440;52.118;5.408;2023-10-13T08:38:03;100570.88;;;17.61;100.00
80128;BME280;69440;52.118;5.408;2023-10-13T08:40:59;100556.16;;;17.63;100.00
80128;BME280;69440;52.118;5.408;2023-10-13T08:43:45;100564.16;;;17.65;100.00
80128;BME280;69440;52.118;5.408;2023-10-13T08:46:18;100557.47;;;17.69;100.00
80128;BME280;69440;52.118;5.408;2023-10-13T08:48:56;100568.91;;;17.73;100.00
80128;BME280;69440;52.118;5.408;2023-10-13T08:51:41;100562.47;;;17.74;100.00
80128;BME280;69440;52.118;5.408;2023-10-13T08:54:13;100546.91;;;17.76;100.00
80128;BME280;69440;52.118;5.408;2023-10-13T08:57:02;100548.63;;;17.77;100.00
80128;BME280;69440;52.118;5.408;2023-10-13T08:59:59;100552.19;;;17.77;100.00
80128;BME280;69440;52.118;5.408;2023-10-13T09:02:45;100542.88;;;17.80;100.00
80128;BME280;69440;52.118;5.408;2023-10-13T09:05:47;100523.84;;;17.80;100.00
80128;BME280;69440;52.118;5.408;2023-10-13T09:08:29;100542.88;;;17.80;100.00
80128;BME280;69440;52.118;5.408;2023-10-13T09:11:03;100551.19;;;17.78;100.00
80128;BME280;69440;52.118;5.408;2023-10-13T09:13:39;100546.00;;;17.75;100.00
80128;BME280;69440;52.118;5.408;2023-10-13T09:16:15;100541.31;;;17.77;100.00
80128;BME280;69440;52.118;5.408;2023-10-13T09:19:14;100541.47;;;17.76;100.00
80128;BME280;69440;52.118;5.408;2023-10-13T09:21:41;100535.03;;;17.77;100.00
80128;BME280;69440;52.118;5.408;2023-10-13T09:24:09;100527.88;;;17.76;100.00
80128;BME280;69440;52.118;5.408;2023-10-13T09:26:49;100533.44;;;17.74;100.00
80128;BME280;69440;52.118;5.408;2023-10-13T09:29:20;100538.59;;;17.77;100.00
80128;BME280;69440;52.118;5.408;2023-10-13T09:31:58;100528.59;;;17.78;100.00
80128;BME280;69440;52.118;5.408;2023-10-13T09:34:26;100525.44;;;17.82;100.00
80128;BME280;69440;52.118;5.408;2023-10-13T09:36:58;100514.41;;;17.84;100.00
80128;BME280;69440;52.118;5.408;2023-10-13T09:39:26;100513.97;;;17.88;100.00
80128;BME280;69440;52.118;5.408;2023-10-13T09:42:11;100501.38;;;17.87;100.00
80128;BME280;69440;52.118;5.408;2023-10-13T09:44:42;100504.09;;;17.87;100.00
80128;BME280;69440;52.118;5.408;2023-10-13T09:47:20;100513.66;;;17.91;100.00
80128;BME280;69440;52.118;5.408;2023-10-13T09:49:59;100510.81;;;17.93;100.00
80128;BME280;69440;52.118;5.408;2023-10-13T09:52:30;100488.91;;;17.94;100.00
80128;BME280;69440;52.118;5.408;2023-10-13T09:55:09;100489.91;;;17.93;100.00
80128;BME280;69440;52.118;5.408;2023-10-13T09:57:43;100491.75;;;17.93;100.00
80128;BME280;69440;52.118;5.408;2023-10-13T10:00:19;100478.31;;;17.91;100.00
80128;BME280;69440;52.118;5.408;2023-10-13T10:02:55;100484.63;;;17.92;100.00
80128;BME280;69440;52.118;5.408;2023-10-13T10:05:30;100473.59;;;17.93;100.00
80128;BME280;69440;52.118;5.408;2023-10-13T10:08:01;100472.28;;;17.97;100.00
80128;BME280;69440;52.118;5.408;2023-10-13T10:10:52;100472.84;;;18.01;100.00
80128;BME280;69440;52.118;5.408;2023-10-13T10:16:10;100459.69;;;18.06;100.00
80128;BME280;69440;52.118;5.408;2023-10-13T10:18:41;100465.69;;;18.10;100.00
80128;BME280;69440;52.118;5.408;2023-10-13T10:21:08;100452.66;;;18.13;100.00
80128;BME280;69440;52.118;5.408;2023-10-13T10:23:37;100462.66;;;18.13;100.00
80128;BME280;69440;52.118;5.408;2023-10-13T10:26:14;100458.09;;;18.13;100.00
80128;BME280;69440;52.118;5.408;2023-10-13T10:28:42;100448.31;;;18.20;100.00
80128;BME280;69440;52.118;5.408;2023-10-13T10:31:10;100442.56;;;18.23;100.00
80128;BME280;69440;52.118;5.408;2023-10-13T10:33:43;100442.66;;;18.31;100.00
80128;BME280;69440;52.118;5.408;2023-10-13T10:36:11;100449.09;;;18.40;100.00
80128;BME280;69440;52.118;5.408;2023-10-13T10:38:53;100429.13;;;18.49;100.00
80128;BME280;69440;52.118;5.408;2023-10-13T10:41:26;100437.25;;;18.59;100.00
80128;BME280;69440;52.118;5.408;2023-10-13T10:43:58;100424.91;;;18.65;100.00
80128;BME280;69440;52.118;5.408;2023-10-13T10:46:29;100422.47;;;18.71;100.00
80128;BME280;69440;52.118;5.408;2023-10-13T10:49:06;100430.88;;;18.78;100.00
80128;BME280;69440;52.118;5.408;2023-10-13T10:51:41;100411.34;;;18.82;100.00
80128;BME280;69440;52.118;5.408;2023-10-13T10:54:20;100417.63;;;18.83;100.00
80128;BME280;69440;52.118;5.408;2023-10-13T10:56:47;100420.19;;;18.84;100.00
80128;BME280;69440;52.118;5.408;2023-10-13T10:59:19;100400.66;;;18.89;100.00
80128;BME280;69440;52.118;5.408;2023-10-13T11:01:46;100396.16;;;18.98;100.00
80128;BME280;69440;52.118;5.408;2023-10-13T11:04:14;100413.44;;;19.06;99.76
80128;BME280;69440;52.118;5.408;2023-10-13T11:06:47;100393.22;;;19.09;99.29
80128;BME280;69440;52.118;5.408;2023-10-13T11:09:14;100388.09;;;19.06;100.00
80128;BME280;69440;52.118;5.408;2023-10-13T11:11:53;100407.31;;;19.04;99.27
80128;BME280;69440;52.118;5.408;2023-10-13T11:14:26;100402.56;;;19.06;97.71
80128;BME280;69440;52.118;5.408;2023-10-13T11:16:57;100397.28;;;19.05;98.93
80128;BME280;69440;52.118;5.408;2023-10-13T11:19:44;100390.56;;;18.99;100.00
80128;BME280;69440;52.118;5.408;2023-10-13T11:22:15;100378.94;;;18.97;98.96
80128;BME280;69440;52.118;5.408;2023-10-13T11:25:02;100381.69;;;18.97;99.17
80128;BME280;69440;52.118;5.408;2023-10-13T11:27:41;100368.38;;;18.94;97.86
80128;BME280;69440;52.118;5.408;2023-10-13T11:30:22;100384.56;;;18.96;98.16
80128;BME280;69440;52.118;5.408;2023-10-13T11:33:02;100372.09;;;18.93;98.08
80128;BME280;69440;52.118;5.408;2023-10-13T11:35:37;100350.72;;;18.98;97.11
80128;BME280;69440;52.118;5.408;2023-10-13T11:40:55;100353.19;;;19.09;94.71
80128;BME280;69440;52.118;5.408;2023-10-13T11:46:10;100349.69;;;19.17;95.58
80128;BME280;69440;52.118;5.408;2023-10-13T11:48:40;100337.81;;;19.26;94.14
80128;BME280;69440;52.118;5.408;2023-10-13T11:51:12;100339.25;;;19.30;92.98
80128;BME280;69440;52.118;5.408;2023-10-13T11:53:50;100317.59;;;19.29;92.84
80128;BME280;69440;52.118;5.408;2023-10-13T11:56:20;100313.13;;;19.28;92.89
80128;BME280;69440;52.118;5.408;2023-10-13T11:58:47;100348.66;;;19.36;89.99
80128;BME280;69440;52.118;5.408;2023-10-13T12:01:14;100338.16;;;19.49;89.77
80128;BME280;69440;52.118;5.408;2023-10-13T12:03:42;100324.16;;;19.62;88.54
80128;BME280;69440;52.118;5.408;2023-10-13T12:06:29;100355.22;;;19.69;87.82
80128;BME280;69440;52.118;5.408;2023-10-13T12:09:06;100325.75;;;19.72;87.22
80128;BME280;69440;52.118;5.408;2023-10-13T12:12:02;100333.41;;;19.69;88.45
80128;BME280;69440;52.118;5.408;2023-10-13T12:14:30;100364.41;;;19.68;87.25
80128;BME280;69440;52.118;5.408;2023-10-13T12:17:19;100340.88;;;19.67;87.51
80128;BME280;69440;52.118;5.408;2023-10-13T12:19:52;100334.41;;;19.68;87.25
80128;BME280;69440;52.118;5.408;2023-10-13T12:22:19;100346.19;;;19.68;86.19
80128;BME280;69440;52.118;5.408;2023-10-13T12:24:56;100340.59;;;19.78;86.84
80128;BME280;69440;52.118;5.408;2023-10-13T12:27:23;100330.22;;;19.81;85.38
80128;BME280;69440;52.118;5.408;2023-10-13T12:29:51;100324.91;;;19.80;87.15
80128;BME280;69440;52.118;5.408;2023-10-13T12:32:19;100313.31;;;19.78;87.64
80128;BME280;69440;52.118;5.408;2023-10-13T12:34:57;100317.22;;;19.75;88.04
80128;BME280;69440;52.118;5.408;2023-10-13T12:37:28;100314.53;;;19.83;84.46
80128;BME280;69440;52.118;5.408;2023-10-13T12:40:17;100301.91;;;19.82;87.38
80128;BME280;69440;52.118;5.408;2023-10-13T12:43:04;100321.50;;;19.78;86.54
80128;BME280;69440;52.118;5.408;2023-10-13T12:45:50;100327.47;;;19.81;85.71
80128;BME280;69440;52.118;5.408;2023-10-13T12:48:37;100313.00;;;19.81;87.13
80128;BME280;69440;52.118;5.408;2023-10-13T12:51:22;100319.63;;;19.78;86.92
80128;BME280;69440;52.118;5.408;2023-10-13T12:53:58;100339.56;;;19.79;86.19
80128;BME280;69440;52.118;5.408;2023-10-13T12:56:42;100312.47;;;19.77;86.88
80128;BME280;69440;52.118;5.408;2023-10-13T12:59:09;100320.28;;;19.72;87.57
80128;BME280;69440;52.118;5.408;2023-10-13T13:01:40;100324.03;;;19.71;87.13
80128;BME280;69440;52.118;5.408;2023-10-13T13:04:11;100360.19;;;19.73;87.59
80128;BME280;69440;52.118;5.408;2023-10-13T13:06:48;100310.88;;;19.67;88.40
80128;BME280;69440;52.118;5.408;2023-10-13T13:09:16;100325.38;;;19.67;88.86
80128;BME280;69440;52.118;5.408;2023-10-13T13:11:53;100320.25;;;19.64;88.49
80128;BME280;69440;52.118;5.408;2023-10-13T13:14:24;100329.91;;;19.59;90.92
80128;BME280;69440;52.118;5.408;2023-10-13T13:16:57;100332.56;;;19.50;92.52
80128;BME280;69440;52.118;5.408;2023-10-13T13:19:35;100318.03;;;19.42;93.04
80128;BME280;69440;52.118;5.408;2023-10-13T13:22:10;100321.41;;;19.36;94.04
80128;BME280;69440;52.118;5.408;2023-10-13T13:24:41;100330.34;;;19.28;93.68
80128;BME280;69440;52.118;5.408;2023-10-13T13:27:14;100323.81;;;19.21;93.81
80128;BME280;69440;52.118;5.408;2023-10-13T13:29:44;100330.06;;;19.13;95.54
80128;BME280;69440;52.118;5.408;2023-10-13T13:32:11;100352.50;;;19.07;95.96
80128;BME280;69440;52.118;5.408;2023-10-13T13:34:51;100318.41;;;19.03;96.66